createdAt,value
2022-12-25T00:00:20.904Z,24.88
2022-12-25T00:02:50.392Z,32.03
2022-12-25T00:05:18.467Z,22.63
2022-12-25T00:07:46.163Z,17.27
2022-12-25T00:10:13.924Z,27.33
2022-12-25T00:12:41.595Z,28.85
2022-12-25T00:15:09.721Z,18.63
2022-12-25T00:17:37.603Z,21.20
2022-12-25T00:20:07.987Z,19.55
2022-12-25T00:22:35.522Z,20.58
2022-12-25T00:25:03.267Z,19.73
2022-12-25T00:27:32.739Z,22.10
2022-12-25T00:30:00.286Z,28.38
2022-12-25T00:32:27.823Z,33.38
2022-12-25T00:34:55.322Z,23.30
2022-12-25T00:37:24.127Z,25.40
2022-12-25T00:39:51.703Z,19.27
2022-12-25T00:42:23.745Z,19.65
2022-12-25T00:44:51.598Z,27.70
2022-12-25T00:47:19.341Z,26.52
2022-12-25T00:49:46.976Z,19.83
2022-12-25T00:52:14.897Z,23.35
2022-12-25T00:54:43.714Z,22.13
2022-12-25T00:57:11.200Z,23.05
2022-12-25T00:59:38.704Z,21.90
2022-12-25T01:02:24.293Z,20.98
2022-12-25T01:04:53.126Z,19.65
2022-12-25T01:07:21.303Z,35.75
2022-12-25T01:10:08.132Z,34.30
2022-12-25T01:12:37.784Z,27.60
2022-12-25T01:15:06.683Z,28.48
2022-12-25T01:17:34.261Z,27.20
2022-12-25T01:20:01.990Z,24.23
2022-12-25T01:22:29.663Z,21.95
2022-12-25T01:24:58.467Z,17.70
2022-12-25T01:27:26.005Z,16.63
2022-12-25T01:29:53.528Z,19.23
2022-12-25T01:32:21.044Z,23.35
2022-12-25T01:34:53.848Z,18.65
2022-12-25T01:37:23.300Z,24.50
2022-12-25T01:39:50.801Z,21.27
2022-12-25T01:42:21.071Z,16.38
2022-12-25T01:45:22.657Z,17.00
2022-12-25T01:47:50.248Z,20.58
2022-12-25T01:50:17.947Z,16.60
2022-12-25T01:52:45.661Z,20.33
2022-12-25T01:55:13.751Z,20.50
2022-12-25T01:57:42.862Z,21.02
2022-12-25T02:00:18.138Z,25.88
2022-12-25T02:02:45.759Z,26.35
2022-12-25T02:05:17.911Z,23.65
2022-12-25T02:07:46.552Z,32.13
2022-12-25T02:10:14.584Z,21.23
2022-12-25T02:12:45.084Z,19.77
2022-12-25T02:15:15.093Z,20.05
2022-12-25T02:17:47.020Z,20.08
2022-12-25T02:20:29.321Z,20.70
2022-12-25T02:23:05.948Z,35.35
2022-12-25T02:25:43.245Z,20.08
2022-12-25T02:28:14.907Z,29.25
2022-12-25T02:30:45.482Z,30.38
2022-12-25T02:33:32.554Z,26.83
2022-12-25T02:36:03.915Z,25.70
2022-12-25T02:38:33.384Z,29.67
2022-12-25T02:41:01.977Z,23.70
2022-12-25T02:43:50.332Z,21.35
2022-12-25T02:46:36.850Z,27.23
2022-12-25T02:49:27.382Z,19.35
2022-12-25T02:52:14.723Z,24.70
2022-12-25T02:55:03.002Z,24.27
2022-12-25T02:57:55.792Z,20.40
2022-12-25T03:00:42.877Z,31.30
2022-12-25T03:03:29.356Z,29.98
2022-12-25T03:06:28.009Z,27.98
2022-12-25T03:09:17.217Z,23.80
2022-12-25T03:11:46.019Z,23.88
2022-12-25T03:14:31.531Z,19.83
2022-12-25T03:17:01.232Z,22.27
2022-12-25T03:19:48.994Z,17.55
2022-12-25T03:22:40.300Z,23.25
2022-12-25T03:25:26.186Z,25.73
2022-12-25T03:27:55.604Z,23.52
2022-12-25T03:30:41.363Z,20.45
2022-12-25T03:33:43.093Z,18.42
2022-12-25T03:36:09.970Z,18.65
2022-12-25T03:39:01.942Z,22.65
2022-12-25T03:41:52.002Z,20.00
2022-12-25T03:44:41.437Z,21.40
2022-12-25T03:47:31.246Z,24.75
2022-12-25T03:50:24.513Z,16.63
2022-12-25T03:53:10.405Z,19.30
2022-12-25T03:55:54.953Z,17.85
2022-12-25T03:58:41.553Z,23.92
2022-12-25T04:01:26.943Z,17.67
2022-12-25T04:04:12.217Z,18.77
2022-12-25T04:06:58.744Z,15.10
2022-12-25T04:09:44.147Z,10.73
2022-12-25T04:12:29.296Z,16.73
2022-12-25T04:15:14.741Z,17.17
2022-12-25T04:18:00.056Z,16.77
2022-12-25T04:20:45.338Z,12.85
2022-12-25T04:23:32.067Z,12.77
2022-12-25T04:26:17.986Z,13.48
2022-12-25T04:29:03.417Z,15.00
2022-12-25T04:31:48.892Z,16.45
2022-12-25T04:34:34.241Z,21.90
2022-12-25T04:37:01.740Z,19.08
2022-12-25T04:39:30.644Z,18.38
2022-12-25T04:41:59.332Z,15.73
2022-12-25T04:44:26.811Z,14.48
2022-12-25T04:46:54.357Z,17.67
2022-12-25T04:49:22.084Z,21.20
2022-12-25T04:51:49.556Z,15.20
2022-12-25T04:54:17.035Z,16.27
2022-12-25T04:56:46.231Z,15.13
2022-12-25T04:59:13.928Z,15.40
2022-12-25T05:01:41.606Z,14.77
2022-12-25T05:04:09.260Z,14.15
2022-12-25T05:06:36.819Z,16.80
2022-12-25T05:09:04.303Z,18.60
2022-12-25T05:11:31.835Z,18.38
2022-12-25T05:14:00.621Z,21.13
2022-12-25T05:16:28.311Z,23.75
2022-12-25T05:18:55.813Z,12.02
2022-12-25T05:21:23.375Z,13.68
2022-12-25T05:23:51.349Z,6.75
2022-12-25T05:26:21.324Z,16.88
2022-12-25T05:28:49.012Z,18.38
2022-12-25T05:31:18.350Z,18.60
2022-12-25T05:33:45.919Z,23.33
2022-12-25T05:36:13.629Z,14.77
2022-12-25T05:38:41.196Z,19.38
2022-12-25T05:41:08.658Z,21.85
2022-12-25T05:43:36.191Z,25.92
2022-12-25T05:46:06.681Z,19.95
2022-12-25T05:48:36.860Z,32.92
2022-12-25T05:51:05.880Z,17.20
2022-12-25T05:53:33.633Z,17.48
2022-12-25T05:56:02.972Z,20.02
2022-12-25T05:58:30.562Z,20.95
2022-12-25T06:00:58.109Z,12.27
2022-12-25T06:03:26.515Z,13.27
2022-12-25T06:05:55.681Z,20.80
2022-12-25T06:08:23.195Z,18.27
2022-12-25T06:10:50.660Z,16.77
2022-12-25T06:13:18.136Z,16.27
2022-12-25T06:15:45.609Z,19.10
2022-12-25T06:18:13.143Z,24.40
2022-12-25T06:20:41.195Z,12.23
2022-12-25T06:23:10.012Z,10.40
2022-12-25T06:25:39.517Z,16.45
2022-12-25T06:28:07.143Z,17.55
2022-12-25T06:30:34.910Z,22.83
2022-12-25T06:33:02.432Z,19.08
2022-12-25T06:35:29.914Z,15.57
2022-12-25T06:37:57.907Z,10.65
2022-12-25T06:40:26.719Z,18.60
2022-12-25T06:42:54.208Z,18.35
2022-12-25T06:45:21.701Z,30.23
2022-12-25T06:47:49.181Z,16.75
2022-12-25T06:50:16.890Z,20.60
2022-12-25T06:52:44.371Z,18.65
2022-12-25T06:55:11.844Z,20.35
2022-12-25T06:57:40.692Z,22.70
2022-12-25T07:00:10.074Z,18.60
2022-12-25T07:02:38.542Z,22.80
2022-12-25T07:05:07.000Z,17.13
2022-12-25T07:07:34.479Z,18.88
2022-12-25T07:10:02.004Z,15.25
2022-12-25T07:12:29.472Z,18.15
2022-12-25T07:14:58.289Z,23.80
2022-12-25T07:17:25.864Z,16.10
2022-12-25T07:19:53.352Z,23.80
2022-12-25T07:22:20.892Z,12.48
2022-12-25T07:24:48.429Z,10.63
2022-12-25T07:27:15.909Z,21.08
2022-12-25T07:29:43.412Z,18.80
2022-12-25T07:32:12.323Z,18.70
2022-12-25T07:34:39.886Z,14.10
2022-12-25T07:37:07.391Z,19.70
2022-12-25T07:39:35.372Z,16.63
2022-12-25T07:42:02.899Z,19.73
2022-12-25T07:44:30.407Z,19.08
2022-12-25T07:46:57.877Z,20.10
2022-12-25T07:49:26.690Z,13.48
2022-12-25T07:51:54.196Z,22.15
2022-12-25T07:54:21.734Z,32.95
2022-12-25T07:56:51.683Z,21.75
2022-12-25T07:59:19.367Z,27.77
2022-12-25T08:01:47.130Z,21.20
2022-12-25T08:04:14.773Z,21.85
2022-12-25T08:06:43.775Z,21.15
2022-12-25T08:09:13.635Z,22.02
2022-12-25T08:11:41.144Z,17.67
2022-12-25T08:14:12.721Z,17.02
2022-12-25T08:16:41.854Z,18.05
2022-12-25T08:19:09.642Z,30.17
2022-12-25T08:21:37.176Z,28.95
2022-12-25T08:24:06.492Z,24.25
2022-12-25T08:26:34.278Z,28.00
2022-12-25T08:29:01.771Z,27.10
2022-12-25T08:31:30.747Z,30.45
2022-12-25T08:33:59.404Z,24.98
2022-12-25T08:36:28.256Z,23.70
2022-12-25T08:39:02.504Z,26.27
2022-12-25T08:41:32.645Z,19.27
2022-12-25T08:44:00.146Z,24.70
2022-12-25T08:46:28.153Z,29.83
2022-12-25T08:48:56.682Z,23.60
2022-12-25T08:51:25.516Z,25.92
2022-12-25T08:53:54.031Z,19.08
2022-12-25T08:56:21.699Z,17.98
2022-12-25T08:58:50.484Z,26.30
2022-12-25T09:01:18.120Z,20.33
2022-12-25T09:03:45.714Z,23.77
2022-12-25T09:06:15.141Z,21.67
2022-12-25T09:08:48.658Z,27.75
2022-12-25T09:11:18.228Z,31.30
2022-12-25T09:13:45.997Z,19.27
2022-12-25T09:16:16.652Z,44.55
2022-12-25T09:18:44.254Z,23.85
2022-12-25T09:21:14.296Z,19.02
2022-12-25T09:23:41.988Z,20.52
2022-12-25T09:26:13.139Z,24.42
2022-12-25T09:28:45.127Z,24.88
2022-12-25T09:31:17.549Z,20.52
2022-12-25T09:33:45.076Z,17.52
2022-12-25T09:36:12.581Z,21.70
2022-12-25T09:38:40.053Z,31.73
2022-12-25T09:41:12.644Z,36.63
2022-12-25T09:43:42.768Z,52.55
2022-12-25T09:46:17.620Z,49.85
2022-12-25T09:48:49.530Z,35.85
2022-12-25T09:51:17.988Z,22.92
2022-12-25T09:53:49.414Z,39.80
2022-12-25T09:56:19.261Z,35.28
2022-12-25T09:58:46.813Z,31.02
2022-12-25T10:01:21.225Z,24.60
2022-12-25T10:04:27.634Z,22.05
2022-12-25T10:07:02.861Z,17.45
2022-12-25T10:09:45.077Z,23.65
2022-12-25T10:12:23.963Z,14.83
2022-12-25T10:15:05.237Z,18.45
2022-12-25T10:17:42.428Z,19.25
2022-12-25T10:20:17.682Z,21.48
2022-12-25T10:22:47.647Z,22.33
2022-12-25T10:25:18.242Z,18.92
2022-12-25T10:27:46.513Z,19.58
2022-12-25T10:30:16.012Z,22.83
2022-12-25T10:32:45.899Z,21.95
2022-12-25T10:35:14.485Z,22.90
2022-12-25T10:37:42.685Z,29.88
2022-12-25T10:40:25.333Z,25.92
2022-12-25T10:42:56.639Z,39.15
2022-12-25T10:45:24.141Z,28.95
2022-12-25T10:48:07.169Z,29.27
2022-12-25T10:50:35.085Z,28.55
2022-12-25T10:53:04.762Z,22.00
2022-12-25T10:55:32.802Z,17.77
2022-12-25T10:58:02.033Z,33.17
2022-12-25T11:00:32.231Z,26.92
2022-12-25T11:03:01.606Z,31.98
2022-12-25T11:05:31.331Z,45.33
2022-12-25T11:08:00.401Z,20.83
2022-12-25T11:10:30.715Z,15.48
2022-12-25T11:13:00.027Z,16.70
2022-12-25T11:15:33.872Z,19.77
2022-12-25T11:18:02.809Z,14.32
2022-12-25T11:20:30.924Z,20.48
2022-12-25T11:22:58.391Z,20.10
2022-12-25T11:25:28.263Z,16.35
2022-12-25T11:27:59.362Z,22.63
2022-12-25T11:30:26.909Z,10.85
2022-12-25T11:32:56.440Z,15.65
2022-12-25T11:35:30.022Z,20.13
2022-12-25T11:37:57.503Z,23.00
2022-12-25T11:40:28.997Z,13.45
2022-12-25T11:43:04.145Z,17.45
2022-12-25T11:45:36.873Z,20.05
2022-12-25T11:48:08.447Z,11.88
2022-12-25T11:50:39.470Z,17.95
2022-12-25T11:53:08.375Z,16.75
2022-12-25T11:55:38.990Z,13.73
2022-12-25T11:58:13.789Z,12.52
2022-12-25T12:00:42.323Z,13.40
2022-12-25T12:03:15.435Z,16.05
2022-12-25T12:05:47.131Z,13.55
2022-12-25T12:08:15.560Z,14.70
2022-12-25T12:10:57.236Z,17.40
2022-12-25T12:13:36.480Z,16.52
2022-12-25T12:16:05.946Z,18.25
2022-12-25T12:18:34.290Z,22.88
2022-12-25T12:21:05.697Z,18.92
2022-12-25T12:23:36.007Z,16.50
2022-12-25T12:26:03.837Z,16.35
2022-12-25T12:28:38.654Z,19.48
2022-12-25T12:31:07.559Z,15.63
2022-12-25T12:33:37.759Z,14.32
2022-12-25T12:36:07.371Z,36.30
2022-12-25T12:38:35.820Z,18.20
2022-12-25T12:41:05.271Z,16.20
2022-12-25T12:43:36.151Z,29.67
2022-12-25T12:46:07.855Z,46.28
2022-12-25T12:48:41.258Z,42.50
2022-12-25T12:51:12.322Z,23.58
2022-12-25T12:53:40.483Z,15.30
2022-12-25T12:56:17.161Z,16.65
2022-12-25T12:58:50.099Z,21.02
2022-12-25T13:01:35.703Z,17.60
2022-12-25T13:04:33.854Z,15.13
2022-12-25T13:07:12.333Z,13.35
2022-12-25T13:09:50.624Z,17.20
2022-12-25T13:12:18.221Z,8.70
2022-12-25T13:14:46.009Z,11.60
2022-12-25T13:17:15.444Z,13.27
2022-12-25T13:19:44.039Z,13.70
2022-12-25T13:22:24.333Z,17.00
2022-12-25T13:25:00.415Z,28.95
2022-12-25T13:27:30.380Z,18.63
2022-12-25T13:29:58.565Z,12.95
2022-12-25T13:32:27.947Z,26.73
2022-12-25T13:34:55.997Z,30.00
2022-12-25T13:37:26.957Z,14.45
2022-12-25T13:39:56.700Z,21.92
2022-12-25T13:42:25.516Z,21.90
2022-12-25T13:44:55.064Z,18.95
2022-12-25T13:47:25.859Z,40.22
2022-12-25T13:49:55.056Z,42.40
2022-12-25T13:52:27.984Z,32.42
2022-12-25T13:57:26.713Z,36.50
2022-12-25T13:59:54.603Z,25.02
2022-12-25T14:02:28.208Z,38.08
2022-12-25T14:04:56.126Z,26.13
2022-12-25T14:07:25.870Z,36.45
2022-12-25T14:09:57.512Z,30.42
2022-12-25T14:12:25.821Z,31.52
2022-12-25T14:14:54.045Z,19.58
2022-12-25T14:17:22.451Z,23.35
2022-12-25T14:20:01.010Z,25.40
2022-12-25T14:22:35.946Z,29.50
2022-12-25T14:25:03.522Z,30.98
2022-12-25T14:27:31.157Z,27.42
2022-12-25T14:30:00.156Z,22.85
2022-12-25T14:32:29.356Z,26.35
2022-12-25T14:34:59.160Z,29.42
2022-12-25T14:37:29.458Z,34.28
2022-12-25T14:40:00.305Z,15.85
2022-12-25T14:42:29.724Z,19.63
2022-12-25T14:45:00.470Z,22.30
2022-12-25T14:47:28.801Z,22.48
2022-12-25T14:49:56.716Z,20.00
2022-12-25T14:52:27.324Z,18.80
2022-12-25T14:54:57.688Z,18.13
2022-12-25T14:57:32.622Z,21.00
2022-12-25T15:00:03.658Z,17.00
2022-12-25T15:02:40.441Z,17.52
2022-12-25T15:05:25.595Z,17.02
2022-12-25T15:08:21.307Z,19.50
2022-12-25T15:11:05.150Z,15.30
2022-12-25T15:13:34.398Z,15.48
2022-12-25T15:16:05.308Z,25.30
2022-12-25T15:18:37.425Z,16.10
2022-12-25T15:21:05.410Z,16.30
2022-12-25T15:23:33.262Z,12.18
2022-12-25T15:26:00.817Z,12.38
2022-12-25T15:28:28.537Z,12.05
2022-12-25T15:30:58.550Z,11.23
2022-12-25T15:33:26.074Z,14.45
2022-12-25T15:35:53.631Z,16.80
2022-12-25T15:38:21.307Z,28.55
2022-12-25T15:40:48.773Z,18.73
2022-12-25T15:43:40.577Z,35.08
2022-12-25T15:46:05.871Z,62.47
2022-12-25T15:48:33.445Z,26.30
2022-12-25T15:51:00.930Z,38.85
2022-12-25T15:53:28.476Z,45.42
2022-12-25T15:55:56.193Z,114.55
2022-12-25T15:58:23.699Z,141.95
2022-12-25T16:00:51.572Z,36.03
2022-12-25T16:03:20.504Z,41.35
2022-12-25T16:05:47.987Z,34.22
2022-12-25T16:08:15.461Z,39.17
2022-12-25T16:10:43.085Z,66.10
2022-12-25T16:13:10.769Z,58.08
2022-12-25T16:15:38.359Z,51.45
2022-12-25T16:18:06.168Z,43.05
2022-12-25T16:20:35.309Z,56.47
2022-12-25T16:23:02.938Z,50.40
2022-12-25T16:25:30.677Z,36.70
2022-12-25T16:27:58.152Z,51.63
2022-12-25T16:30:25.622Z,48.45
2022-12-25T16:32:53.579Z,23.13
2022-12-25T16:35:21.108Z,28.65
2022-12-25T16:37:50.155Z,32.33
2022-12-25T16:40:18.026Z,21.13
2022-12-25T16:42:45.506Z,28.33
2022-12-25T16:45:13.395Z,42.72
2022-12-25T16:47:40.871Z,27.23
2022-12-25T16:50:10.816Z,22.67
2022-12-25T16:52:38.346Z,22.02
2022-12-25T16:55:07.581Z,16.67
2022-12-25T16:57:35.162Z,15.10
2022-12-25T17:00:02.811Z,14.35
2022-12-25T17:02:30.458Z,14.57
2022-12-25T17:04:58.047Z,14.77
2022-12-25T17:07:25.759Z,14.88
2022-12-25T17:09:53.251Z,15.00
2022-12-25T17:12:22.037Z,15.98
2022-12-25T17:14:49.784Z,10.18
2022-12-25T17:17:17.302Z,11.40
2022-12-25T17:19:44.822Z,14.73
2022-12-25T17:22:12.445Z,15.43
2022-12-25T17:24:41.409Z,14.43
2022-12-25T17:27:09.538Z,12.73
2022-12-25T17:29:39.799Z,12.85
2022-12-25T17:32:08.919Z,16.73
2022-12-25T17:34:36.847Z,12.90
2022-12-25T17:37:04.504Z,9.88
2022-12-25T17:39:32.176Z,12.60
2022-12-25T17:41:59.993Z,15.68
2022-12-25T17:44:27.703Z,14.40
2022-12-25T17:46:56.778Z,10.05
2022-12-25T17:49:24.310Z,14.20
2022-12-25T17:51:51.819Z,14.63
2022-12-25T17:54:19.305Z,18.30
2022-12-25T17:56:47.025Z,17.05
2022-12-25T17:59:18.414Z,13.07
2022-12-25T18:01:46.768Z,19.73
2022-12-25T18:04:16.843Z,13.27
2022-12-25T18:06:44.348Z,9.27
2022-12-25T18:09:13.058Z,11.85
2022-12-25T18:11:42.339Z,11.93
2022-12-25T18:14:12.701Z,12.05
2022-12-25T18:16:43.210Z,11.43
2022-12-25T18:19:11.308Z,11.43
2022-12-25T18:21:40.152Z,8.68
2022-12-25T18:24:09.273Z,11.55
2022-12-25T18:26:37.504Z,8.05
2022-12-25T18:29:05.430Z,10.43
2022-12-25T18:31:32.946Z,9.13
2022-12-25T18:34:00.866Z,9.57
2022-12-25T18:36:29.959Z,10.98
2022-12-25T18:38:59.788Z,8.18
2022-12-25T18:41:30.245Z,9.27
2022-12-25T18:43:59.656Z,9.32
2022-12-25T18:46:28.313Z,7.68
2022-12-25T18:48:56.278Z,7.50
2022-12-25T18:51:23.785Z,12.48
2022-12-25T18:53:51.884Z,13.20
2022-12-25T18:56:20.865Z,10.02
2022-12-25T18:58:48.760Z,7.40
2022-12-25T19:01:18.722Z,8.90
2022-12-25T19:03:48.765Z,7.10
2022-12-25T19:06:20.394Z,12.30
2022-12-25T19:08:48.239Z,9.10
2022-12-25T19:11:16.137Z,7.75
2022-12-25T19:13:45.436Z,10.52
2022-12-25T19:16:12.978Z,7.28
2022-12-25T19:18:40.989Z,8.65
2022-12-25T19:21:10.095Z,12.10
2022-12-25T19:23:38.358Z,8.82
2022-12-25T19:26:06.935Z,8.63
2022-12-25T19:28:35.127Z,7.88
2022-12-25T19:31:07.286Z,10.70
2022-12-25T19:33:36.185Z,7.22
2022-12-25T19:36:05.121Z,9.25
2022-12-25T19:38:32.885Z,9.30
2022-12-25T19:41:03.323Z,8.60
2022-12-25T19:43:32.471Z,7.85
2022-12-25T19:46:01.360Z,7.60
2022-12-25T19:48:30.989Z,10.35
2022-12-25T19:50:58.924Z,7.63
2022-12-25T19:53:27.081Z,17.98
2022-12-25T19:55:55.443Z,9.50
2022-12-25T19:58:24.341Z,9.77
2022-12-25T20:01:02.720Z,11.13
2022-12-25T20:03:31.800Z,16.65
2022-12-25T20:05:59.406Z,15.10
2022-12-25T20:08:27.170Z,10.80
2022-12-25T20:10:54.931Z,14.10
2022-12-25T20:13:22.920Z,10.95
2022-12-25T20:15:50.772Z,10.20
2022-12-25T20:18:18.655Z,8.43
2022-12-25T20:20:47.506Z,10.50
2022-12-25T20:23:14.984Z,12.70
2022-12-25T20:25:42.706Z,7.25
2022-12-25T20:28:10.408Z,18.60
2022-12-25T20:30:40.355Z,7.43
2022-12-25T20:33:08.150Z,8.75
2022-12-25T20:35:35.732Z,10.90
2022-12-25T20:38:04.547Z,11.23
2022-12-25T20:40:46.766Z,11.63
2022-12-25T20:43:20.260Z,8.82
2022-12-25T20:45:51.372Z,11.98
2022-12-25T20:48:18.971Z,11.18
2022-12-25T20:50:47.549Z,9.73
2022-12-25T20:53:16.909Z,7.95
2022-12-25T20:55:45.782Z,10.27
2022-12-25T20:58:13.853Z,11.93
2022-12-25T21:00:43.852Z,8.65
2022-12-25T21:03:12.036Z,9.05
2022-12-25T21:05:49.710Z,11.98
2022-12-25T21:08:19.240Z,10.57
2022-12-25T21:10:50.474Z,8.07
2022-12-25T21:13:18.249Z,8.60
2022-12-25T21:15:46.488Z,10.27
2022-12-25T21:18:14.214Z,8.90
2022-12-25T21:20:44.212Z,9.80
2022-12-25T21:23:11.749Z,8.68
2022-12-25T21:25:40.787Z,9.65
2022-12-25T21:28:08.622Z,8.65
2022-12-25T21:30:36.639Z,9.07
2022-12-25T21:33:22.319Z,7.60
2022-12-25T21:35:50.448Z,7.95
2022-12-25T21:38:18.119Z,9.07
2022-12-25T21:40:46.927Z,9.00
2022-12-25T21:43:15.085Z,6.78
2022-12-25T21:45:42.640Z,9.05
2022-12-25T21:48:10.215Z,8.70
2022-12-25T21:50:55.994Z,10.73
2022-12-25T21:53:23.779Z,10.43
2022-12-25T21:56:00.645Z,11.98
2022-12-25T21:58:28.359Z,8.88
2022-12-25T22:00:56.208Z,8.95
2022-12-25T22:03:25.110Z,8.43
2022-12-25T22:06:10.252Z,8.98
2022-12-25T22:08:37.772Z,8.65
2022-12-25T22:11:26.780Z,6.57
2022-12-25T22:14:12.298Z,6.97
2022-12-25T22:16:57.155Z,8.10
2022-12-25T22:19:42.581Z,7.18
2022-12-25T22:22:10.473Z,6.97
2022-12-25T22:24:38.346Z,8.68
2022-12-25T22:27:07.306Z,9.20
2022-12-25T22:29:35.016Z,11.40
2022-12-25T22:32:02.548Z,7.28
2022-12-25T22:34:30.247Z,9.10
2022-12-25T22:36:58.750Z,6.28
2022-12-25T22:39:26.363Z,8.38
2022-12-25T22:41:54.764Z,9.00
2022-12-25T22:44:24.273Z,6.22
2022-12-25T22:46:52.365Z,6.53
2022-12-25T22:49:20.650Z,6.90
2022-12-25T22:51:50.996Z,8.27
2022-12-25T22:54:19.928Z,11.25
2022-12-25T22:56:49.687Z,8.52
2022-12-25T22:59:20.136Z,10.07
2022-12-25T23:01:49.711Z,9.57
2022-12-25T23:04:18.427Z,8.73
2022-12-25T23:06:46.584Z,5.88
2022-12-25T23:09:22.249Z,8.70
2022-12-25T23:11:52.509Z,8.05
2022-12-25T23:14:38.144Z,8.00
2022-12-25T23:17:28.486Z,6.40
2022-12-25T23:20:14.777Z,6.55
2022-12-25T23:23:00.593Z,6.30
2022-12-25T23:25:46.343Z,4.35
2022-12-25T23:28:14.569Z,6.28
2022-12-25T23:30:41.390Z,9.65
2022-12-25T23:33:11.065Z,6.18
2022-12-25T23:35:38.953Z,4.80
2022-12-25T23:38:06.990Z,5.82
2022-12-25T23:40:34.932Z,5.47
2022-12-25T23:43:02.513Z,5.45
2022-12-25T23:45:30.242Z,5.28
2022-12-25T23:47:57.837Z,5.10
2022-12-25T23:50:26.626Z,7.32
2022-12-25T23:52:55.311Z,8.48
2022-12-25T23:55:22.793Z,5.35
2022-12-25T23:57:50.568Z,6.00
